Glasgow, Virginia
Current Conditions -  °F | °C
As of 10:54 PM on Tuesday 21 Oct 2014 (Local Time) from KLYH Reporting Station
Overcast Overcast  
Wind Chill: 53°   Ceiling: 5500
Heat Index: 53°   Visibility: 10mi
Dew Point: 42°   Wind: 6mph
Humidity: 66%   Direction: NA
Pressure: 29.96"   Gusts: NA
Location:  37.63°N, 79.45°W
Report Text: KLYH 220254Z AUTO VRB05KT 10SM BKN055 OVC110 12/06 A2996 RMK AO2 RAB36E49 SLP141 P0000 60000 T01170056 51012
Loading
Personal Weather Stations






























Interactive Weather Map
Tropical Storm Tracking
New forecast layout! Learn more

10-Day Weather Forecast

Advertisements
Track Severe Weather on mobile